createdAt,value
2023-04-06T00:02:37.042Z,100.00
2023-04-06T00:05:40.080Z,100.00
2023-04-06T00:08:43.330Z,100.00
2023-04-06T00:11:49.180Z,100.00
2023-04-06T00:14:53.800Z,100.00
2023-04-06T00:17:57.991Z,100.00
2023-04-06T00:21:01.267Z,100.00
2023-04-06T00:24:05.738Z,100.00
2023-04-06T00:27:08.748Z,100.00
2023-04-06T00:30:14.059Z,100.00
2023-04-06T00:33:17.090Z,100.00
2023-04-06T00:36:20.455Z,100.00
2023-04-06T00:39:24.121Z,100.00
2023-04-06T00:42:27.305Z,100.00
2023-04-06T00:45:31.734Z,100.00
2023-04-06T00:48:35.221Z,100.00
2023-04-06T00:51:38.452Z,100.00
2023-04-06T00:54:41.678Z,100.00
2023-04-06T00:57:45.994Z,100.00
2023-04-06T01:00:51.037Z,100.00
2023-04-06T01:03:56.987Z,100.00
2023-04-06T01:07:00.518Z,100.00
2023-04-06T01:10:11.804Z,100.00
2023-04-06T01:13:15.539Z,100.00
2023-04-06T01:16:27.812Z,100.00
2023-04-06T01:19:56.921Z,100.00
2023-04-06T01:23:07.354Z,100.00
2023-04-06T01:26:12.095Z,100.00
2023-04-06T01:29:15.431Z,100.00
2023-04-06T01:32:20.464Z,100.00
2023-04-06T01:35:28.986Z,100.00
2023-04-06T01:38:47.999Z,100.00
2023-04-06T01:41:54.141Z,100.00
2023-04-06T01:44:58.474Z,100.00
2023-04-06T01:48:01.736Z,100.00
2023-04-06T01:51:06.400Z,100.00
2023-04-06T01:54:14.675Z,100.00
2023-04-06T01:57:29.516Z,100.00
2023-04-06T02:00:41.522Z,100.00
2023-04-06T02:03:45.456Z,100.00
2023-04-06T02:06:55.401Z,100.00
2023-04-06T02:10:02.463Z,100.00
2023-04-06T02:13:12.358Z,100.00
2023-04-06T02:16:17.644Z,100.00
2023-04-06T02:19:23.407Z,100.00
2023-04-06T02:22:26.471Z,100.00
2023-04-06T02:25:31.448Z,100.00
2023-04-06T02:28:34.771Z,100.00
2023-04-06T02:31:38.650Z,100.00
2023-04-06T02:34:42.842Z,100.00
2023-04-06T02:37:46.175Z,100.00
2023-04-06T02:40:50.676Z,100.00
2023-04-06T02:44:01.845Z,100.00
2023-04-06T02:47:14.018Z,100.00
2023-04-06T02:50:22.060Z,100.00
2023-04-06T02:53:32.968Z,100.00
2023-04-06T02:56:37.709Z,100.00
2023-04-06T02:59:41.152Z,100.00
2023-04-06T03:02:51.654Z,100.00
2023-04-06T03:05:57.256Z,100.00
2023-04-06T03:09:04.405Z,100.00
2023-04-06T03:12:11.065Z,100.00
2023-04-06T03:15:36.911Z,100.00
2023-04-06T03:18:49.304Z,100.00
2023-04-06T03:21:52.676Z,100.00
2023-04-06T03:24:57.884Z,100.00
2023-04-06T03:28:02.624Z,100.00
2023-04-06T03:31:07.442Z,100.00
2023-04-06T03:34:21.996Z,100.00
2023-04-06T03:37:25.404Z,100.00
2023-04-06T03:40:32.052Z,100.00
2023-04-06T03:43:37.060Z,100.00
2023-04-06T03:46:40.572Z,100.00
2023-04-06T03:49:44.671Z,100.00
2023-04-06T03:52:49.716Z,100.00
2023-04-06T03:55:53.153Z,100.00
2023-04-06T03:58:59.007Z,100.00
2023-04-06T04:02:02.289Z,100.00
2023-04-06T04:05:07.119Z,100.00
2023-04-06T04:08:10.920Z,100.00
2023-04-06T04:11:13.986Z,100.00
2023-04-06T04:14:18.476Z,100.00
2023-04-06T04:17:22.097Z,100.00
2023-04-06T04:20:25.627Z,100.00
2023-04-06T04:23:28.675Z,100.00
2023-04-06T04:26:31.862Z,100.00
2023-04-06T04:29:37.120Z,100.00
2023-04-06T04:32:44.364Z,100.00
2023-04-06T04:35:47.507Z,100.00
2023-04-06T04:38:54.751Z,100.00
2023-04-06T04:41:58.941Z,100.00
2023-04-06T04:45:03.677Z,100.00
2023-04-06T04:48:13.956Z,100.00
2023-04-06T04:51:43.013Z,100.00
2023-04-06T04:54:49.270Z,100.00
2023-04-06T04:58:00.315Z,100.00
2023-04-06T05:01:19.760Z,100.00
2023-04-06T05:04:24.042Z,100.00
2023-04-06T05:07:29.510Z,100.00
2023-04-06T05:10:35.181Z,100.00
2023-04-06T05:13:39.192Z,100.00
2023-04-06T05:16:49.968Z,100.00
2023-04-06T05:19:53.833Z,100.00
2023-04-06T05:23:00.727Z,100.00
2023-04-06T05:26:04.203Z,100.00
2023-04-06T05:29:07.825Z,100.00
2023-04-06T05:32:14.969Z,100.00
2023-04-06T05:35:19.132Z,100.00
2023-04-06T05:38:26.808Z,100.00
2023-04-06T05:41:32.164Z,100.00
2023-04-06T05:44:39.607Z,100.00
2023-04-06T05:47:50.816Z,100.00
2023-04-06T05:51:01.892Z,100.00
2023-04-06T05:54:14.991Z,100.00
2023-04-06T05:57:19.233Z,100.00
2023-04-06T06:00:23.248Z,100.00
2023-04-06T06:03:38.721Z,100.00
2023-04-06T06:06:43.321Z,100.00
2023-04-06T06:09:52.621Z,100.00
2023-04-06T06:13:01.686Z,100.00
2023-04-06T06:16:06.526Z,100.00
2023-04-06T06:19:14.582Z,100.00
2023-04-06T06:22:17.870Z,100.00
2023-04-06T06:25:23.333Z,100.00
2023-04-06T06:28:27.451Z,100.00
2023-04-06T06:31:30.849Z,100.00
2023-04-06T06:34:35.258Z,100.00
2023-04-06T06:37:40.911Z,100.00
2023-04-06T06:40:48.743Z,100.00
2023-04-06T06:43:52.903Z,100.00
2023-04-06T06:46:56.421Z,100.00
2023-04-06T06:50:01.152Z,100.00
2023-04-06T06:53:04.320Z,100.00
2023-04-06T06:56:08.114Z,100.00
2023-04-06T06:59:12.192Z,100.00
2023-04-06T07:02:15.506Z,100.00
2023-04-06T07:05:28.052Z,100.00
2023-04-06T07:08:32.847Z,100.00
2023-04-06T07:11:35.914Z,100.00
2023-04-06T07:14:39.081Z,100.00
2023-04-06T07:17:42.859Z,100.00
2023-04-06T07:20:47.440Z,100.00
2023-04-06T07:23:51.790Z,100.00
2023-04-06T07:26:54.802Z,100.00
2023-04-06T07:29:57.882Z,100.00
2023-04-06T07:33:02.970Z,100.00
2023-04-06T07:36:08.123Z,100.00
2023-04-06T07:39:11.677Z,100.00
2023-04-06T07:42:14.720Z,100.00
2023-04-06T07:45:18.292Z,100.00
2023-04-06T07:48:22.691Z,100.00
2023-04-06T07:53:52.765Z,100.00
2023-04-06T07:56:04.821Z,100.00
2023-04-06T07:59:31.594Z,100.00
2023-04-06T08:02:53.410Z,100.00
2023-04-06T08:05:56.854Z,100.00
2023-04-06T08:09:01.215Z,100.00
2023-04-06T08:12:04.401Z,100.00
2023-04-06T08:15:08.499Z,99.78
2023-04-06T08:18:12.045Z,100.00
2023-04-06T08:21:15.067Z,94.93
2023-04-06T08:24:19.450Z,93.73
2023-04-06T08:27:22.455Z,91.23
2023-04-06T08:30:25.513Z,90.63
2023-04-06T08:33:28.532Z,86.01
2023-04-06T08:36:31.776Z,84.76
2023-04-06T08:39:36.577Z,82.10
2023-04-06T08:42:46.599Z,79.14
2023-04-06T08:45:49.888Z,79.84
2023-04-06T08:48:53.354Z,77.10
2023-04-06T08:51:58.365Z,75.16
2023-04-06T08:55:03.115Z,72.99
2023-04-06T08:58:09.842Z,71.78
2023-04-06T09:01:16.463Z,71.58
2023-04-06T09:04:20.417Z,75.87
2023-04-06T09:07:24.938Z,71.82
2023-04-06T09:10:30.747Z,70.47
2023-04-06T09:13:33.933Z,66.92
2023-04-06T09:16:43.689Z,68.25
2023-04-06T09:19:51.111Z,64.95
2023-04-06T09:22:54.292Z,66.01
2023-04-06T09:26:10.690Z,63.95
2023-04-06T09:29:25.644Z,69.13
2023-04-06T09:32:28.764Z,66.71
2023-04-06T09:35:34.151Z,63.29
2023-04-06T09:38:39.150Z,61.43
2023-04-06T09:41:44.086Z,63.39
2023-04-06T09:44:48.845Z,59.90
2023-04-06T09:47:55.047Z,58.13
2023-04-06T09:51:06.423Z,58.05
2023-04-06T09:54:11.720Z,58.87
2023-04-06T09:57:27.490Z,58.95
2023-04-06T10:00:34.885Z,59.42
2023-04-06T10:03:48.138Z,60.24
2023-04-06T10:06:53.526Z,56.76
2023-04-06T10:09:57.722Z,54.69
2023-04-06T10:13:02.621Z,52.37
2023-04-06T10:16:07.049Z,48.62
2023-04-06T10:19:18.230Z,49.64
2023-04-06T10:22:27.363Z,48.38
2023-04-06T10:25:30.615Z,47.76
2023-04-06T10:28:37.679Z,48.84
2023-04-06T10:31:45.624Z,50.37
2023-04-06T10:34:48.721Z,51.36
2023-04-06T10:38:02.932Z,49.57
2023-04-06T10:41:07.375Z,48.13
2023-04-06T10:44:22.533Z,49.08
2023-04-06T10:47:25.850Z,48.52
2023-04-06T10:50:31.843Z,46.77
2023-04-06T10:53:36.139Z,47.47
2023-04-06T10:56:40.837Z,46.81
2023-04-06T10:59:46.590Z,44.90
2023-04-06T11:02:50.045Z,48.06
2023-04-06T11:05:53.814Z,46.35
2023-04-06T11:08:58.042Z,44.64
2023-04-06T11:12:02.049Z,46.39
2023-04-06T11:15:08.292Z,41.65
2023-04-06T11:18:12.586Z,47.05
2023-04-06T11:21:15.971Z,43.17
2023-04-06T11:24:21.111Z,43.93
2023-04-06T11:27:24.567Z,44.23
2023-04-06T11:30:29.210Z,40.88
2023-04-06T11:33:38.572Z,42.38
2023-04-06T11:36:46.040Z,44.43
2023-04-06T11:39:51.907Z,42.00
2023-04-06T11:42:55.965Z,43.27
2023-04-06T11:46:06.285Z,46.60
2023-04-06T11:49:09.340Z,41.68
2023-04-06T11:52:24.906Z,44.34
2023-04-06T11:55:28.243Z,44.76
2023-04-06T11:58:32.150Z,44.35
2023-04-06T12:01:39.225Z,44.14
2023-04-06T12:04:42.475Z,43.25
2023-04-06T12:07:45.571Z,42.14
2023-04-06T12:10:48.538Z,42.61
2023-04-06T12:13:51.559Z,42.73
2023-04-06T12:16:55.867Z,42.15
2023-04-06T12:20:05.122Z,45.00
2023-04-06T12:23:09.054Z,41.04
2023-04-06T12:26:13.346Z,38.69
2023-04-06T12:29:16.745Z,39.26
2023-04-06T12:32:21.494Z,43.46
2023-04-06T12:35:24.532Z,42.28
2023-04-06T12:38:27.554Z,41.86
2023-04-06T12:41:33.536Z,42.77
2023-04-06T12:44:36.553Z,43.90
2023-04-06T12:47:41.291Z,41.72
2023-04-06T12:50:44.376Z,45.13
2023-04-06T12:53:47.913Z,43.57
2023-04-06T12:56:51.414Z,44.08
2023-04-06T12:59:54.588Z,43.35
2023-04-06T13:02:59.056Z,44.32
2023-04-06T13:06:03.096Z,43.24
2023-04-06T13:09:06.766Z,43.60
2023-04-06T13:12:10.061Z,40.54
2023-04-06T13:15:13.931Z,42.11
2023-04-06T13:18:18.535Z,41.98
2023-04-06T13:21:22.638Z,42.95
2023-04-06T13:24:25.814Z,43.56
2023-04-06T13:27:29.328Z,40.47
2023-04-06T13:30:32.416Z,42.54
2023-04-06T13:33:37.334Z,40.48
2023-04-06T13:36:42.376Z,41.11
2023-04-06T13:39:45.400Z,41.62
2023-04-06T13:42:48.974Z,42.47
2023-04-06T13:45:52.902Z,42.54
2023-04-06T13:48:57.377Z,43.44
2023-04-06T13:52:00.726Z,42.55
2023-04-06T13:55:04.183Z,43.26
2023-04-06T13:58:07.284Z,41.62
2023-04-06T14:01:11.787Z,41.20
2023-04-06T14:04:16.418Z,40.34
2023-04-06T14:07:19.474Z,42.68
2023-04-06T14:10:24.785Z,41.03
2023-04-06T14:13:28.407Z,41.99
2023-04-06T14:16:32.278Z,41.31
2023-04-06T14:19:37.192Z,40.63
2023-04-06T14:22:40.284Z,41.53
2023-04-06T14:25:43.503Z,43.04
2023-04-06T14:28:47.380Z,40.80
2023-04-06T14:31:50.854Z,41.91
2023-04-06T14:34:55.407Z,40.12
2023-04-06T14:37:59.226Z,40.64
2023-04-06T14:41:02.628Z,39.72
2023-04-06T14:44:06.587Z,39.35
2023-04-06T14:47:09.620Z,38.76
2023-04-06T14:50:14.377Z,41.04
2023-04-06T14:53:17.356Z,38.89
2023-04-06T14:56:24.343Z,39.60
2023-04-06T15:02:35.684Z,40.53
2023-04-06T15:05:40.366Z,37.94
2023-04-06T15:08:43.998Z,39.83
2023-04-06T15:11:47.011Z,39.43
2023-04-06T15:14:50.013Z,41.80
2023-04-06T15:17:53.002Z,40.37
2023-04-06T15:20:57.360Z,38.90
2023-04-06T15:24:00.519Z,39.31
2023-04-06T15:27:05.985Z,40.29
2023-04-06T15:30:10.394Z,40.00
2023-04-06T15:33:13.448Z,39.44
2023-04-06T15:36:29.723Z,41.17
2023-04-06T15:39:34.233Z,39.16
2023-04-06T15:42:37.569Z,40.36
2023-04-06T15:45:41.767Z,40.35
2023-04-06T15:48:45.511Z,42.94
2023-04-06T15:51:50.483Z,41.58
2023-04-06T15:54:54.129Z,43.62
2023-04-06T15:57:57.178Z,43.42
2023-04-06T16:01:00.364Z,42.74
2023-04-06T16:04:03.560Z,42.69
2023-04-06T16:07:08.026Z,41.88
2023-04-06T16:10:11.821Z,42.03
2023-04-06T16:13:14.857Z,41.92
2023-04-06T16:16:17.848Z,42.91
2023-04-06T16:19:21.285Z,42.98
2023-04-06T16:22:25.886Z,42.80
2023-04-06T16:25:28.980Z,42.99
2023-04-06T16:28:33.045Z,43.22
2023-04-06T16:31:36.404Z,42.57
2023-04-06T16:34:40.095Z,43.65
2023-04-06T16:37:46.609Z,44.27
2023-04-06T16:40:49.737Z,44.20
2023-04-06T16:43:53.652Z,43.90
2023-04-06T16:46:56.803Z,44.73
2023-04-06T16:50:05.955Z,46.08
2023-04-06T16:53:10.866Z,46.94
2023-04-06T16:56:14.360Z,44.89
2023-04-06T16:59:17.384Z,45.57
2023-04-06T17:02:20.876Z,45.82
2023-04-06T17:05:26.502Z,45.82
2023-04-06T17:08:31.258Z,47.54
2023-04-06T17:11:46.149Z,45.50
2023-04-06T17:14:50.382Z,46.19
2023-04-06T17:17:54.108Z,46.68
2023-04-06T17:20:57.251Z,47.48
2023-04-06T17:24:02.158Z,47.27
2023-04-06T17:27:05.310Z,47.45
2023-04-06T17:30:12.341Z,48.20
2023-04-06T17:33:17.707Z,47.93
2023-04-06T17:36:22.009Z,47.93
2023-04-06T17:39:26.871Z,49.39
2023-04-06T17:42:29.906Z,48.90
2023-04-06T17:45:33.053Z,48.26
2023-04-06T17:48:36.291Z,51.44
2023-04-06T17:51:39.248Z,50.41
2023-04-06T17:54:43.595Z,50.63
2023-04-06T17:57:46.799Z,50.10
2023-04-06T18:00:49.818Z,50.71
2023-04-06T18:03:53.209Z,51.16
2023-04-06T18:06:56.449Z,51.75
2023-04-06T18:10:01.748Z,53.02
2023-04-06T18:13:05.001Z,52.93
2023-04-06T18:16:08.283Z,53.60
2023-04-06T18:19:11.409Z,54.11
2023-04-06T18:22:14.699Z,54.42
2023-04-06T18:25:19.280Z,56.44
2023-04-06T18:28:22.248Z,57.03
2023-04-06T18:31:25.386Z,57.67
2023-04-06T18:34:28.985Z,57.81
2023-04-06T18:37:31.965Z,60.32
2023-04-06T18:40:38.681Z,61.78
2023-04-06T18:43:42.005Z,60.92
2023-04-06T18:46:46.025Z,61.65
2023-04-06T18:49:50.029Z,64.87
2023-04-06T18:52:53.172Z,64.63
2023-04-06T18:55:58.560Z,63.72
2023-04-06T18:59:01.548Z,65.62
2023-04-06T19:02:04.635Z,65.31
2023-04-06T19:05:08.723Z,68.87
2023-04-06T19:08:13.065Z,68.55
2023-04-06T19:11:18.642Z,68.78
2023-04-06T19:14:21.814Z,73.30
2023-04-06T19:17:25.088Z,70.87
2023-04-06T19:20:28.282Z,71.13
2023-04-06T19:23:31.578Z,72.01
2023-04-06T19:26:35.903Z,72.69
2023-04-06T19:29:39.224Z,77.70
2023-04-06T19:32:42.262Z,75.23
2023-04-06T19:35:45.314Z,77.13
2023-04-06T19:38:48.384Z,79.45
2023-04-06T19:41:53.336Z,81.66
2023-04-06T19:44:57.443Z,79.70
2023-04-06T19:48:01.525Z,79.69
2023-04-06T19:51:04.565Z,83.00
2023-04-06T19:54:07.804Z,82.72
2023-04-06T19:57:12.163Z,87.16
2023-04-06T20:00:16.340Z,85.58
2023-04-06T20:03:19.999Z,84.25
2023-04-06T20:06:23.328Z,84.48
2023-04-06T20:09:26.576Z,86.16
2023-04-06T20:12:30.959Z,86.37
2023-04-06T20:15:34.007Z,86.88
2023-04-06T20:18:37.066Z,87.93
2023-04-06T20:21:41.009Z,89.15
2023-04-06T20:24:44.012Z,91.08
2023-04-06T20:27:48.553Z,91.40
2023-04-06T20:30:53.016Z,92.16
2023-04-06T20:34:12.350Z,94.33
2023-04-06T20:37:15.666Z,95.05
2023-04-06T20:40:20.861Z,96.11
2023-04-06T20:43:28.215Z,98.85
2023-04-06T20:46:31.423Z,98.49
2023-04-06T20:49:34.558Z,99.76
2023-04-06T20:52:38.059Z,100.00
2023-04-06T20:55:41.745Z,100.00
2023-04-06T20:58:46.304Z,100.00
2023-04-06T21:01:49.857Z,100.00
2023-04-06T21:04:52.934Z,100.00
2023-04-06T21:07:56.624Z,100.00
2023-04-06T21:10:59.735Z,100.00
2023-04-06T21:14:04.116Z,100.00
2023-04-06T21:17:07.705Z,100.00
2023-04-06T21:20:12.544Z,100.00
2023-04-06T21:23:16.178Z,100.00
2023-04-06T21:26:19.765Z,100.00
2023-04-06T21:29:24.054Z,100.00
2023-04-06T21:32:27.667Z,100.00
2023-04-06T21:35:31.244Z,100.00
2023-04-06T21:38:35.096Z,100.00
2023-04-06T21:41:40.306Z,100.00
2023-04-06T21:44:44.623Z,100.00
2023-04-06T21:47:47.648Z,100.00
2023-04-06T21:50:50.770Z,100.00
2023-04-06T21:53:56.282Z,100.00
2023-04-06T21:56:59.854Z,100.00
2023-04-06T22:00:09.685Z,100.00
2023-04-06T22:03:18.226Z,100.00
2023-04-06T22:06:22.826Z,100.00
2023-04-06T22:09:25.877Z,100.00
2023-04-06T22:12:29.005Z,100.00
2023-04-06T22:15:34.114Z,100.00
2023-04-06T22:18:39.148Z,100.00
2023-04-06T22:21:42.622Z,100.00
2023-04-06T22:24:45.797Z,100.00
2023-04-06T22:27:49.288Z,100.00
2023-04-06T22:30:53.670Z,100.00
2023-04-06T22:33:57.116Z,100.00
2023-04-06T22:37:00.149Z,100.00
2023-04-06T22:40:03.410Z,100.00
2023-04-06T22:43:09.493Z,100.00
2023-04-06T22:46:13.776Z,100.00
2023-04-06T22:49:16.862Z,100.00
2023-04-06T22:52:20.024Z,100.00
2023-04-06T22:55:23.373Z,100.00
2023-04-06T22:58:26.527Z,100.00
2023-04-06T23:01:31.100Z,100.00
2023-04-06T23:04:34.453Z,100.00
2023-04-06T23:07:37.522Z,100.00
2023-04-06T23:10:42.010Z,100.00
2023-04-06T23:13:45.762Z,100.00
2023-04-06T23:16:50.245Z,100.00
2023-04-06T23:19:53.302Z,100.00
2023-04-06T23:22:56.321Z,100.00
2023-04-06T23:25:59.359Z,100.00
2023-04-06T23:29:02.523Z,100.00
2023-04-06T23:32:07.235Z,100.00
2023-04-06T23:35:11.280Z,100.00
2023-04-06T23:38:14.293Z,100.00
2023-04-06T23:41:17.294Z,100.00
2023-04-06T23:44:20.900Z,100.00
2023-04-06T23:47:25.396Z,100.00
2023-04-06T23:50:28.849Z,100.00
2023-04-06T23:53:34.509Z,100.00
2023-04-06T23:56:38.315Z,100.00
2023-04-06T23:59:41.398Z,100.00
